createdAt,value
2017-12-26T00:01:09.293Z,87.60
2017-12-26T00:03:35.531Z,87.20
2017-12-26T00:06:01.808Z,87.30
2017-12-26T00:08:28.014Z,87.60
2017-12-26T00:10:54.246Z,88.50
2017-12-26T00:13:20.465Z,88.40
2017-12-26T00:15:46.681Z,88.60
2017-12-26T00:18:12.937Z,88.60
2017-12-26T00:20:39.168Z,88.80
2017-12-26T00:23:05.401Z,88.80
2017-12-26T00:25:31.630Z,88.70
2017-12-26T00:27:57.870Z,89.00
2017-12-26T00:30:24.933Z,89.60
2017-12-26T00:32:51.206Z,89.20
2017-12-26T00:35:17.436Z,89.40
2017-12-26T00:37:43.639Z,89.10
2017-12-26T00:40:10.548Z,89.60
2017-12-26T00:42:36.770Z,89.80
2017-12-26T00:45:03.017Z,89.30
2017-12-26T00:47:30.214Z,89.40
2017-12-26T00:49:56.428Z,89.40
2017-12-26T00:52:22.649Z,88.80
2017-12-26T00:54:48.896Z,88.40
2017-12-26T00:57:15.142Z,88.40
2017-12-26T00:59:41.344Z,88.80
2017-12-26T01:02:07.564Z,88.30
2017-12-26T01:04:33.789Z,87.80
2017-12-26T01:07:00.658Z,87.30
2017-12-26T01:09:26.889Z,87.70
2017-12-26T01:11:53.129Z,87.60
2017-12-26T01:14:19.368Z,87.50
2017-12-26T01:16:45.549Z,88.40
2017-12-26T01:19:11.798Z,89.20
2017-12-26T01:21:38.004Z,89.60
2017-12-26T01:24:04.229Z,89.40
2017-12-26T01:26:30.468Z,89.70
2017-12-26T01:28:56.688Z,89.40
2017-12-26T01:31:22.919Z,89.20
2017-12-26T01:33:49.158Z,89.30
2017-12-26T01:36:15.390Z,88.70
2017-12-26T01:38:41.652Z,88.50
2017-12-26T01:41:07.863Z,88.60
2017-12-26T01:43:34.128Z,88.50
2017-12-26T01:46:22.681Z,88.60
2017-12-26T01:48:49.268Z,87.90
2017-12-26T01:51:15.524Z,87.90
2017-12-26T01:53:41.729Z,87.70
2017-12-26T01:56:07.962Z,88.40
2017-12-26T01:58:34.178Z,88.20
2017-12-26T02:01:00.401Z,87.50
2017-12-26T02:03:27.479Z,87.30
2017-12-26T02:05:54.588Z,87.60
2017-12-26T02:08:20.824Z,87.40
2017-12-26T02:10:47.027Z,87.50
2017-12-26T02:13:13.273Z,87.10
2017-12-26T02:15:39.499Z,87.90
2017-12-26T02:18:05.728Z,88.60
2017-12-26T02:20:31.948Z,88.60
2017-12-26T02:22:58.137Z,88.80
2017-12-26T02:25:24.766Z,88.50
2017-12-26T02:27:50.992Z,88.50
2017-12-26T02:30:17.233Z,88.30
2017-12-26T02:32:43.847Z,88.40
2017-12-26T02:35:10.068Z,88.30
2017-12-26T02:37:36.291Z,88.80
2017-12-26T02:40:03.522Z,89.10
2017-12-26T02:42:29.746Z,89.00
2017-12-26T02:44:55.978Z,88.00
2017-12-26T02:47:22.199Z,88.00
2017-12-26T02:49:48.448Z,87.70
2017-12-26T02:52:14.672Z,88.00
2017-12-26T02:54:40.894Z,87.70
2017-12-26T02:57:07.095Z,86.90
2017-12-26T02:59:33.326Z,86.90
2017-12-26T03:01:59.549Z,86.80
2017-12-26T03:04:25.758Z,87.20
2017-12-26T03:06:52.011Z,87.10
2017-12-26T03:09:18.262Z,87.10
2017-12-26T03:11:44.498Z,87.30
2017-12-26T03:14:10.691Z,87.80
2017-12-26T03:16:38.588Z,88.70
2017-12-26T03:19:04.797Z,88.70
2017-12-26T03:21:31.022Z,88.70
2017-12-26T03:23:57.248Z,88.20
2017-12-26T03:26:23.446Z,89.20
2017-12-26T03:28:50.042Z,88.60
2017-12-26T03:31:16.249Z,88.60
2017-12-26T03:33:42.473Z,90.00
2017-12-26T03:36:08.695Z,89.50
2017-12-26T03:38:34.917Z,89.00
2017-12-26T03:41:01.156Z,89.40
2017-12-26T03:43:27.369Z,89.40
2017-12-26T03:45:53.592Z,89.00
2017-12-26T03:48:20.190Z,88.50
2017-12-26T03:50:46.437Z,88.50
2017-12-26T03:53:12.646Z,88.90
2017-12-26T03:55:38.864Z,88.90
2017-12-26T03:58:05.097Z,87.90
2017-12-26T04:00:31.307Z,87.90
2017-12-26T04:02:58.319Z,87.90
2017-12-26T04:05:24.524Z,88.20
2017-12-26T04:07:50.753Z,88.30
2017-12-26T04:10:17.333Z,87.90
2017-12-26T04:12:43.557Z,87.90
2017-12-26T04:15:09.778Z,87.90
2017-12-26T04:17:35.988Z,87.90
2017-12-26T04:20:02.615Z,88.30
2017-12-26T04:22:29.233Z,88.20
2017-12-26T04:24:55.456Z,88.20
2017-12-26T04:27:21.671Z,87.40
2017-12-26T04:29:48.155Z,87.60
2017-12-26T04:32:14.731Z,87.70
2017-12-26T04:34:40.932Z,87.70
2017-12-26T04:37:07.163Z,87.60
2017-12-26T04:39:33.392Z,87.80
2017-12-26T04:41:59.627Z,88.10
2017-12-26T04:44:25.844Z,88.10
2017-12-26T04:46:52.058Z,88.70
2017-12-26T04:49:18.281Z,88.80
2017-12-26T04:51:44.533Z,89.50
2017-12-26T04:54:10.744Z,90.70
2017-12-26T04:56:36.951Z,90.70
2017-12-26T04:59:03.166Z,90.70
2017-12-26T05:01:29.449Z,90.10
2017-12-26T05:03:55.673Z,90.20
2017-12-26T05:06:21.867Z,89.40
2017-12-26T05:08:48.100Z,89.30
2017-12-26T05:11:14.692Z,89.20
2017-12-26T05:13:40.899Z,89.20
2017-12-26T05:16:07.125Z,88.60
2017-12-26T05:18:33.366Z,87.90
2017-12-26T05:20:59.559Z,88.00
2017-12-26T05:23:25.776Z,87.70
2017-12-26T05:25:52.384Z,87.30
2017-12-26T05:28:18.616Z,87.30
2017-12-26T05:30:44.856Z,86.70
2017-12-26T05:33:11.048Z,87.50
2017-12-26T05:35:37.263Z,88.00
2017-12-26T05:38:03.485Z,87.70
2017-12-26T05:40:29.703Z,87.50
2017-12-26T05:42:55.938Z,87.30
2017-12-26T05:45:22.156Z,87.50
2017-12-26T05:47:48.353Z,86.70
2017-12-26T05:50:14.963Z,87.60
2017-12-26T05:52:41.192Z,87.60
2017-12-26T05:55:07.413Z,88.10
2017-12-26T05:57:33.657Z,87.80
2017-12-26T05:59:59.956Z,88.00
2017-12-26T06:02:26.152Z,88.40
2017-12-26T06:04:52.385Z,87.60
2017-12-26T06:07:18.608Z,87.60
2017-12-26T06:09:44.829Z,88.20
2017-12-26T06:12:11.438Z,87.90
2017-12-26T06:14:37.652Z,87.90
2017-12-26T06:17:03.880Z,88.20
2017-12-26T06:19:30.106Z,88.90
2017-12-26T06:21:56.351Z,89.40
2017-12-26T06:24:22.561Z,90.40
2017-12-26T06:26:48.749Z,89.50
2017-12-26T06:29:15.032Z,89.70
2017-12-26T06:31:41.864Z,89.20
2017-12-26T06:34:08.223Z,89.40
2017-12-26T06:36:34.819Z,89.60
2017-12-26T06:39:01.091Z,89.60
2017-12-26T06:41:27.316Z,89.70
2017-12-26T06:43:53.522Z,89.00
2017-12-26T06:46:19.778Z,88.40
2017-12-26T06:48:45.983Z,88.40
2017-12-26T06:51:12.242Z,88.40
2017-12-26T06:53:38.821Z,89.10
2017-12-26T06:56:05.070Z,89.10
2017-12-26T06:58:31.267Z,89.30
2017-12-26T07:00:57.495Z,88.90
2017-12-26T07:03:23.727Z,89.00
2017-12-26T07:05:49.933Z,89.00
2017-12-26T07:08:16.155Z,88.80
2017-12-26T07:10:42.370Z,87.70
2017-12-26T07:13:08.954Z,86.30
2017-12-26T07:15:35.203Z,86.30
2017-12-26T07:18:01.424Z,86.50
2017-12-26T07:20:33.824Z,87.40
2017-12-26T07:23:00.027Z,87.80
2017-12-26T07:25:26.249Z,87.70
2017-12-26T07:27:52.503Z,87.40
2017-12-26T07:30:18.731Z,88.10
2017-12-26T07:32:44.984Z,88.50
2017-12-26T07:35:11.596Z,89.00
2017-12-26T07:37:37.800Z,89.10
2017-12-26T07:40:04.051Z,88.90
2017-12-26T07:42:30.283Z,88.80
2017-12-26T07:44:56.520Z,88.90
2017-12-26T07:47:22.752Z,88.90
2017-12-26T07:49:48.984Z,88.40
2017-12-26T07:52:15.253Z,87.80
2017-12-26T07:54:41.482Z,87.40
2017-12-26T07:57:07.705Z,87.70
2017-12-26T07:59:33.954Z,87.20
2017-12-26T08:02:00.202Z,87.20
2017-12-26T08:04:27.712Z,87.50
2017-12-26T08:06:54.770Z,87.40
2017-12-26T08:09:20.997Z,87.60
2017-12-26T08:11:47.241Z,87.60
2017-12-26T08:14:13.512Z,87.40
2017-12-26T08:16:39.761Z,87.30
2017-12-26T08:19:05.999Z,87.80
2017-12-26T08:21:32.214Z,87.20
2017-12-26T08:23:58.824Z,87.00
2017-12-26T08:26:25.024Z,87.00
2017-12-26T08:28:51.403Z,86.90
2017-12-26T08:31:18.034Z,85.40
2017-12-26T08:33:44.632Z,84.50
2017-12-26T08:36:10.866Z,84.50
2017-12-26T08:38:37.094Z,83.60
2017-12-26T08:41:03.312Z,83.80
2017-12-26T08:43:29.567Z,83.70
2017-12-26T08:45:56.568Z,84.20
2017-12-26T08:48:23.739Z,83.40
2017-12-26T08:50:49.982Z,83.90
2017-12-26T08:53:16.210Z,84.70
2017-12-26T08:55:42.430Z,84.20
2017-12-26T08:58:08.656Z,83.50
2017-12-26T09:00:34.880Z,83.40
2017-12-26T09:03:01.091Z,83.70
2017-12-26T09:05:27.319Z,84.40
2017-12-26T09:07:55.379Z,83.80
2017-12-26T09:10:21.621Z,83.70
2017-12-26T09:12:47.858Z,83.50
2017-12-26T09:15:14.144Z,83.20
2017-12-26T09:17:40.601Z,82.40
2017-12-26T09:20:06.854Z,81.60
2017-12-26T09:22:34.051Z,81.70
2017-12-26T09:25:00.310Z,81.60
2017-12-26T09:27:26.564Z,81.20
2017-12-26T09:29:52.797Z,80.80
2017-12-26T09:32:19.210Z,80.00
2017-12-26T09:34:45.734Z,78.40
2017-12-26T09:37:11.971Z,78.40
2017-12-26T09:39:38.211Z,77.90
2017-12-26T09:42:04.518Z,78.20
2017-12-26T09:44:30.796Z,76.80
2017-12-26T09:46:57.055Z,76.20
2017-12-26T09:49:23.682Z,75.10
2017-12-26T09:51:51.093Z,75.00
2017-12-26T09:54:17.320Z,75.00
2017-12-26T09:56:43.613Z,75.40
2017-12-26T09:59:10.169Z,73.80
2017-12-26T10:01:36.415Z,72.60
2017-12-26T10:04:02.630Z,72.10
2017-12-26T10:06:28.904Z,73.20
2017-12-26T10:08:56.581Z,75.20
2017-12-26T10:11:24.253Z,74.50
2017-12-26T10:13:51.128Z,74.50
2017-12-26T10:16:17.388Z,72.40
2017-12-26T10:18:43.649Z,72.90
2017-12-26T10:21:09.879Z,72.90
2017-12-26T10:23:36.118Z,74.20
2017-12-26T10:26:02.383Z,74.90
2017-12-26T10:28:28.625Z,73.50
2017-12-26T10:30:54.864Z,73.00
2017-12-26T10:33:21.103Z,72.10
2017-12-26T10:35:47.314Z,69.90
2017-12-26T10:38:13.604Z,67.10
2017-12-26T10:40:39.881Z,63.10
2017-12-26T10:43:06.164Z,64.00
2017-12-26T10:45:32.507Z,67.70
2017-12-26T10:47:58.789Z,70.60
2017-12-26T10:50:25.064Z,71.60
2017-12-26T10:52:51.328Z,71.00
2017-12-26T10:55:17.608Z,69.60
2017-12-26T10:57:43.845Z,69.10
2017-12-26T11:00:10.141Z,69.90
2017-12-26T11:02:36.461Z,70.70
2017-12-26T11:05:03.120Z,72.90
2017-12-26T11:07:29.894Z,72.90
2017-12-26T11:09:56.121Z,72.90
2017-12-26T11:12:22.414Z,72.70
2017-12-26T11:14:48.670Z,72.30
2017-12-26T11:17:14.945Z,72.60
2017-12-26T11:19:41.184Z,72.90
2017-12-26T11:22:07.813Z,74.00
2017-12-26T11:24:34.427Z,73.80
2017-12-26T11:27:00.691Z,73.80
2017-12-26T11:29:27.321Z,73.20
2017-12-26T11:31:54.009Z,71.40
2017-12-26T11:34:20.264Z,71.40
2017-12-26T11:36:46.577Z,70.80
2017-12-26T11:39:12.840Z,70.60
2017-12-26T11:41:39.805Z,70.40
2017-12-26T11:44:06.095Z,69.00
2017-12-26T11:46:32.334Z,68.40
2017-12-26T11:48:58.592Z,69.40
2017-12-26T11:51:24.810Z,70.30
2017-12-26T11:53:51.948Z,71.50
2017-12-26T11:56:18.206Z,72.20
2017-12-26T11:58:44.464Z,71.70
2017-12-26T12:01:10.735Z,71.90
2017-12-26T12:03:40.356Z,70.60
2017-12-26T12:06:06.663Z,70.20
2017-12-26T12:08:33.675Z,70.30
2017-12-26T12:11:00.072Z,70.80
2017-12-26T12:13:26.826Z,71.50
2017-12-26T12:15:53.096Z,71.50
2017-12-26T12:18:19.375Z,71.50
2017-12-26T12:20:45.638Z,71.20
2017-12-26T12:23:11.877Z,71.80
2017-12-26T12:25:38.153Z,72.10
2017-12-26T12:28:04.495Z,72.40
2017-12-26T12:30:30.809Z,72.40
2017-12-26T12:32:57.460Z,72.20
2017-12-26T12:35:23.812Z,72.20
2017-12-26T12:37:50.066Z,72.80
2017-12-26T12:40:16.328Z,72.40
2017-12-26T12:42:42.594Z,73.00
2017-12-26T12:45:09.010Z,73.00
2017-12-26T12:47:35.308Z,73.10
2017-12-26T12:50:01.662Z,72.10
2017-12-26T12:52:28.294Z,71.40
2017-12-26T12:54:55.524Z,71.80
2017-12-26T12:57:22.438Z,71.80
2017-12-26T12:59:48.718Z,72.10
2017-12-26T13:02:15.257Z,72.40
2017-12-26T13:04:41.601Z,72.90
2017-12-26T13:07:07.804Z,73.00
2017-12-26T13:09:34.064Z,73.20
2017-12-26T13:12:00.346Z,73.80
2017-12-26T13:14:27.550Z,73.80
2017-12-26T13:16:53.823Z,73.70
2017-12-26T13:19:20.138Z,74.00
2017-12-26T13:21:46.402Z,73.80
2017-12-26T13:24:13.041Z,73.80
2017-12-26T13:26:39.276Z,73.80
2017-12-26T13:29:05.887Z,73.90
2017-12-26T13:31:32.207Z,73.90
2017-12-26T13:33:58.462Z,73.70
2017-12-26T13:36:24.763Z,74.00
2017-12-26T13:38:51.036Z,73.30
2017-12-26T13:41:17.657Z,73.90
2017-12-26T13:43:44.305Z,73.80
2017-12-26T13:46:10.957Z,73.60
2017-12-26T13:48:37.248Z,73.60
2017-12-26T13:51:03.566Z,73.70
2017-12-26T13:53:29.813Z,73.50
2017-12-26T13:55:56.089Z,73.70
2017-12-26T13:58:23.343Z,73.80
2017-12-26T14:00:49.606Z,73.70
2017-12-26T14:03:15.843Z,73.40
2017-12-26T14:05:42.076Z,73.90
2017-12-26T14:08:08.348Z,73.90
2017-12-26T14:10:34.594Z,73.80
2017-12-26T14:13:00.854Z,73.80
2017-12-26T14:15:27.993Z,73.40
2017-12-26T14:17:54.235Z,73.60
2017-12-26T14:20:20.514Z,73.50
2017-12-26T14:22:46.732Z,73.30
2017-12-26T14:25:13.042Z,73.10
2017-12-26T14:27:39.323Z,73.40
2017-12-26T14:30:05.606Z,73.20
2017-12-26T14:32:31.880Z,73.20
2017-12-26T14:34:58.499Z,72.70
2017-12-26T14:37:24.807Z,72.40
2017-12-26T14:39:51.077Z,72.80
2017-12-26T14:42:17.421Z,73.30
2017-12-26T14:44:43.667Z,73.40
2017-12-26T14:47:10.191Z,73.90
2017-12-26T14:49:36.869Z,74.20
2017-12-26T14:52:03.503Z,74.30
2017-12-26T14:54:29.788Z,74.30
2017-12-26T14:56:56.066Z,74.50
2017-12-26T14:59:22.372Z,74.80
2017-12-26T15:01:48.660Z,74.20
2017-12-26T15:04:14.971Z,73.80
2017-12-26T15:06:41.266Z,73.90
2017-12-26T15:09:07.520Z,74.10
2017-12-26T15:11:34.179Z,74.30
2017-12-26T15:14:00.424Z,74.30
2017-12-26T15:16:26.664Z,74.20
2017-12-26T15:18:52.914Z,74.10
2017-12-26T15:21:19.161Z,73.90
2017-12-26T15:23:45.379Z,73.80
2017-12-26T15:26:11.617Z,74.20
2017-12-26T15:28:37.856Z,74.60
2017-12-26T15:31:04.530Z,74.60
2017-12-26T15:33:31.056Z,74.50
2017-12-26T15:35:57.289Z,74.60
2017-12-26T15:38:23.543Z,74.90
2017-12-26T15:40:51.220Z,74.70
2017-12-26T15:43:17.524Z,74.60
2017-12-26T15:45:43.768Z,74.20
2017-12-26T15:48:09.991Z,74.30
2017-12-26T15:50:36.273Z,74.60
2017-12-26T15:53:02.615Z,74.40
2017-12-26T15:55:28.873Z,74.40
2017-12-26T15:57:55.135Z,74.60
2017-12-26T16:00:21.421Z,74.80
2017-12-26T16:02:47.702Z,74.60
2017-12-26T16:05:14.332Z,74.40
2017-12-26T16:07:40.658Z,74.40
2017-12-26T16:10:07.995Z,74.30
2017-12-26T16:12:34.264Z,74.30
2017-12-26T16:15:00.895Z,73.90
2017-12-26T16:17:27.499Z,74.00
2017-12-26T16:19:53.818Z,74.00
2017-12-26T16:22:20.100Z,74.00
2017-12-26T16:24:46.721Z,73.00
2017-12-26T16:27:12.941Z,73.10
2017-12-26T16:29:39.196Z,72.90
2017-12-26T16:32:05.851Z,72.00
2017-12-26T16:34:32.131Z,72.00
2017-12-26T16:36:58.444Z,71.80
2017-12-26T16:39:24.684Z,71.60
2017-12-26T16:41:50.947Z,72.40
2017-12-26T16:44:17.539Z,72.50
2017-12-26T16:46:43.758Z,72.50
2017-12-26T16:49:10.084Z,72.70
2017-12-26T16:51:37.663Z,73.80
2017-12-26T16:54:03.935Z,75.10
2017-12-26T16:56:30.512Z,76.60
2017-12-26T16:59:01.269Z,76.60
2017-12-26T17:01:27.529Z,77.20
2017-12-26T17:03:53.789Z,77.70
2017-12-26T17:06:20.109Z,77.10
2017-12-26T17:08:46.395Z,77.30
2017-12-26T17:11:12.647Z,77.10
2017-12-26T17:13:39.580Z,77.20
2017-12-26T17:16:05.838Z,77.60
2017-12-26T17:18:32.148Z,77.50
2017-12-26T17:21:00.678Z,77.30
2017-12-26T17:23:27.296Z,77.30
2017-12-26T17:25:53.538Z,77.40
2017-12-26T17:28:19.785Z,78.50
2017-12-26T17:30:46.052Z,78.70
2017-12-26T17:33:12.697Z,79.50
2017-12-26T17:35:38.990Z,79.60
2017-12-26T17:38:05.238Z,80.00
2017-12-26T17:40:31.578Z,80.30
2017-12-26T17:42:58.063Z,79.80
2017-12-26T17:45:24.320Z,79.70
2017-12-26T17:47:50.582Z,79.10
2017-12-26T17:50:17.173Z,78.50
2017-12-26T17:52:43.433Z,78.50
2017-12-26T17:55:10.124Z,78.30
2017-12-26T17:57:36.365Z,78.30
2017-12-26T18:00:03.633Z,78.30
2017-12-26T18:02:29.911Z,78.50
2017-12-26T18:04:57.813Z,78.20
2017-12-26T18:07:24.067Z,78.60
2017-12-26T18:09:50.378Z,78.70
2017-12-26T18:12:16.669Z,78.10
2017-12-26T18:14:43.032Z,78.30
2017-12-26T18:17:09.296Z,77.90
2017-12-26T18:19:35.643Z,78.00
2017-12-26T18:22:01.943Z,78.10
2017-12-26T18:24:28.206Z,77.80
2017-12-26T18:26:54.480Z,77.80
2017-12-26T18:29:20.760Z,78.20
2017-12-26T18:31:47.404Z,78.70
2017-12-26T18:34:15.226Z,78.70
2017-12-26T18:36:41.456Z,78.70
2017-12-26T18:39:08.277Z,78.80
2017-12-26T18:41:34.497Z,78.90
2017-12-26T18:44:00.751Z,78.60
2017-12-26T18:46:27.046Z,78.70
2017-12-26T18:48:53.295Z,78.70
2017-12-26T18:51:19.581Z,79.00
2017-12-26T18:53:45.862Z,78.30
2017-12-26T18:56:12.120Z,78.40
2017-12-26T18:58:38.381Z,78.50
2017-12-26T19:01:04.640Z,78.60
2017-12-26T19:03:30.957Z,79.00
2017-12-26T19:05:57.253Z,79.00
2017-12-26T19:08:23.902Z,79.10
2017-12-26T19:10:50.200Z,79.10
2017-12-26T19:13:16.489Z,78.90
2017-12-26T19:15:42.723Z,79.10
2017-12-26T19:18:08.996Z,79.40
2017-12-26T19:20:35.675Z,79.30
2017-12-26T19:23:02.030Z,79.30
2017-12-26T19:25:28.308Z,78.80
2017-12-26T19:27:54.907Z,78.90
2017-12-26T19:30:22.803Z,78.90
2017-12-26T19:32:49.118Z,79.00
2017-12-26T19:35:15.369Z,78.50
2017-12-26T19:37:41.582Z,78.40
2017-12-26T19:40:07.855Z,78.70
2017-12-26T19:42:34.122Z,79.30
2017-12-26T19:45:00.382Z,79.30
2017-12-26T19:47:26.677Z,79.20
2017-12-26T19:49:53.010Z,79.20
2017-12-26T19:52:19.234Z,79.80
2017-12-26T19:54:45.487Z,79.90
2017-12-26T19:57:12.128Z,80.10
2017-12-26T19:59:38.809Z,79.90
2017-12-26T20:02:05.073Z,79.90
2017-12-26T20:04:31.398Z,79.80
2017-12-26T20:06:57.694Z,78.80
2017-12-26T20:09:24.001Z,79.10
2017-12-26T20:11:50.266Z,79.30
2017-12-26T20:14:16.649Z,79.20
2017-12-26T20:16:42.963Z,79.40
2017-12-26T20:19:09.245Z,79.50
2017-12-26T20:21:35.541Z,79.30
2017-12-26T20:24:02.146Z,79.50
2017-12-26T20:26:28.489Z,79.50
2017-12-26T20:28:57.383Z,79.70
2017-12-26T20:31:23.697Z,79.40
2017-12-26T20:33:49.959Z,79.30
2017-12-26T20:36:16.655Z,79.10
2017-12-26T20:38:43.895Z,79.10
2017-12-26T20:41:10.198Z,79.20
2017-12-26T20:43:36.512Z,79.20
2017-12-26T20:46:03.129Z,78.60
2017-12-26T20:48:29.813Z,78.60
2017-12-26T20:50:56.194Z,78.60
2017-12-26T20:53:22.532Z,79.10
2017-12-26T20:55:48.841Z,79.40
2017-12-26T20:58:15.116Z,79.80
2017-12-26T21:00:41.368Z,79.70
2017-12-26T21:03:07.705Z,79.70
2017-12-26T21:05:34.058Z,79.20
2017-12-26T21:08:00.307Z,79.80
2017-12-26T21:10:26.569Z,80.40
2017-12-26T21:12:53.291Z,80.10
2017-12-26T21:15:20.006Z,79.70
2017-12-26T21:17:46.277Z,79.70
2017-12-26T21:20:12.582Z,79.80
2017-12-26T21:22:39.198Z,79.30
2017-12-26T21:25:05.484Z,79.30
2017-12-26T21:27:31.779Z,79.10
2017-12-26T21:29:58.239Z,79.10
2017-12-26T21:32:24.522Z,79.00
2017-12-26T21:34:50.757Z,79.20
2017-12-26T21:37:17.449Z,79.80
2017-12-26T21:39:43.899Z,79.70
2017-12-26T21:42:10.148Z,79.50
2017-12-26T21:44:36.434Z,79.70
2017-12-26T21:47:02.764Z,79.20
2017-12-26T21:49:29.370Z,79.20
2017-12-26T21:51:56.121Z,79.40
2017-12-26T21:54:22.507Z,79.00
2017-12-26T21:56:48.767Z,79.30
2017-12-26T21:59:15.518Z,79.70
2017-12-26T22:01:42.540Z,80.00
2017-12-26T22:04:08.817Z,80.20
2017-12-26T22:06:35.091Z,80.20
2017-12-26T22:09:01.387Z,80.10
2017-12-26T22:11:28.938Z,80.20
2017-12-26T22:13:55.199Z,80.20
2017-12-26T22:16:21.410Z,79.60
2017-12-26T22:18:48.550Z,79.70
2017-12-26T22:21:15.261Z,79.80
2017-12-26T22:23:41.593Z,79.70
2017-12-26T22:26:07.841Z,79.90
2017-12-26T22:28:34.571Z,79.70
2017-12-26T22:31:00.834Z,80.20
2017-12-26T22:33:27.222Z,80.00
2017-12-26T22:35:53.485Z,80.50
2017-12-26T22:38:19.839Z,80.50
2017-12-26T22:40:46.136Z,80.50
2017-12-26T22:43:12.448Z,80.40
2017-12-26T22:45:38.690Z,80.10
2017-12-26T22:48:04.927Z,79.70
2017-12-26T22:50:31.159Z,79.40
2017-12-26T22:52:57.385Z,80.00
2017-12-26T22:55:23.703Z,79.90
2017-12-26T22:57:51.124Z,79.90
2017-12-26T23:00:20.897Z,80.30
2017-12-26T23:02:47.679Z,80.30
2017-12-26T23:05:14.304Z,81.10
2017-12-26T23:07:40.736Z,81.00
2017-12-26T23:10:06.988Z,80.50
2017-12-26T23:12:33.353Z,80.40
2017-12-26T23:15:05.582Z,79.90
2017-12-26T23:17:38.236Z,80.40
2017-12-26T23:20:10.544Z,80.40
2017-12-26T23:22:36.765Z,80.00
2017-12-26T23:25:09.053Z,80.00
2017-12-26T23:27:41.373Z,80.10
2017-12-26T23:30:13.696Z,80.10
2017-12-26T23:32:45.999Z,80.00
2017-12-26T23:35:18.253Z,79.60
2017-12-26T23:37:50.548Z,80.00
2017-12-26T23:40:22.929Z,80.80
2017-12-26T23:42:55.179Z,81.70
2017-12-26T23:45:27.553Z,81.60
2017-12-26T23:47:59.892Z,81.60
2017-12-26T23:50:32.225Z,81.70
2017-12-26T23:53:04.939Z,81.00
2017-12-26T23:55:37.260Z,81.00
2017-12-26T23:58:09.534Z,81.10
